Time,TemperatureF,DewpointF,PressureIn,WindDirection,WindDirectionDegrees,WindSpeedMPH,WindSpeedGustMPH,Humidity,HourlyPrecipIn,Conditions,Clouds,dailyrainin,SoftwareType,DateUTC
2013-04-12 14:59:00,79.7,63.6,29.69,SW,225,9.0,9.0,58,0.00,,,0.00,WUHU216HW,2013-04-12 18:59:00,
2013-04-12 15:30:00,80.3,64.2,29.68,West,270,5.0,5.0,58,0.00,,,0.00,WUHU216HW,2013-04-12 19:30:00,
2013-04-12 15:31:00,80.3,64.2,29.68,West,270,5.0,5.0,58,0.00,,,0.00,WUHU216HW,2013-04-12 19:31:00,
2013-04-12 15:36:00,80.3,64.2,29.68,West,270,5.0,5.0,58,0.00,,,0.00,WUHU216HW,2013-04-12 19:36:00,
2013-04-12 16:00:00,81.9,60.2,29.65,SW,225,2.6,2.6,48,0.00,,,0.00,WUHU216HW,2013-04-12 20:00:00,
2013-04-12 16:01:00,81.9,60.2,29.65,SW,225,2.6,2.6,48,0.00,,,0.00,WUHU216HW,2013-04-12 20:01:00,
2013-04-12 16:06:00,81.9,60.2,29.65,SW,225,2.6,2.6,48,0.00,,,0.00,WUHU216HW,2013-04-12 20:06:00,
2013-04-12 16:30:00,83.0,58.8,29.65,West,270,6.2,6.2,44,0.00,,,0.00,WUHU216HW,2013-04-12 20:30:00,
2013-04-12 16:31:00,83.0,58.8,29.65,West,270,6.2,6.2,44,0.00,,,0.00,WUHU216HW,2013-04-12 20:31:00,
2013-04-12 16:36:00,83.0,58.8,29.65,West,270,6.2,6.2,44,0.00,,,0.00,WUHU216HW,2013-04-12 20:36:00,
2013-04-12 16:59:00,84.4,59.5,29.65,SSW,203,3.6,3.6,43,0.00,,,0.00,WUHU216HW,2013-04-12 20:59:00,
2013-04-12 17:01:00,84.4,59.5,29.65,SSW,203,3.6,3.6,43,0.00,,,0.00,WUHU216HW,2013-04-12 21:01:00,
2013-04-12 17:06:00,84.4,59.5,29.65,SSW,203,3.6,3.6,43,0.00,,,0.00,WUHU216HW,2013-04-12 21:06:00,
2013-04-12 17:30:00,82.6,56.6,29.65,WSW,248,22.4,22.4,41,0.00,,,0.00,WUHU216HW,2013-04-12 21:30:00,
2013-04-12 17:31:00,82.6,56.6,29.65,WSW,248,22.4,22.4,41,0.00,,,0.00,WUHU216HW,2013-04-12 21:31:00,
2013-04-12 17:36:00,82.6,56.6,29.65,WSW,248,22.4,22.4,41,0.00,,,0.00,WUHU216HW,2013-04-12 21:36:00,
2013-04-12 17:59:00,83.7,57.0,29.64,NNW,338,4.0,4.0,40,0.00,,,0.00,WUHU216HW,2013-04-12 21:59:00,
2013-04-12 18:01:00,83.7,57.0,29.64,NNW,338,4.0,4.0,40,0.00,,,0.00,WUHU216HW,2013-04-12 22:01:00,
2013-04-12 18:05:00,83.7,57.0,29.64,NNW,338,4.0,4.0,40,0.00,,,0.00,WUHU216HW,2013-04-12 22:05:00,
2013-04-12 18:30:00,81.7,56.3,29.64,WSW,248,3.6,3.6,42,0.00,,,0.00,WUHU216HW,2013-04-12 22:30:00,
2013-04-12 18:31:00,81.7,56.3,29.64,WSW,248,3.6,3.6,42,0.00,,,0.00,WUHU216HW,2013-04-12 22:31:00,
2013-04-12 18:36:00,81.7,56.3,29.64,WSW,248,3.6,3.6,42,0.00,,,0.00,WUHU216HW,2013-04-12 22:36:00,
2013-04-12 18:59:00,81.7,56.3,29.65,South,180,5.0,5.0,42,0.00,,,0.00,WUHU216HW,2013-04-12 22:59:00,
2013-04-12 19:01:00,81.7,56.3,29.65,South,180,5.0,5.0,42,0.00,,,0.00,WUHU216HW,2013-04-12 23:01:00,
2013-04-12 19:05:00,81.7,56.3,29.65,South,180,5.0,5.0,42,0.00,,,0.00,WUHU216HW,2013-04-12 23:05:00,
2013-04-12 19:30:00,79.9,56.0,29.67,WSW,248,0.8,0.8,44,0.00,,,0.00,WUHU216HW,2013-04-12 23:30:00,
2013-04-12 19:31:00,79.9,56.0,29.67,WSW,248,0.8,0.8,44,0.00,,,0.00,WUHU216HW,2013-04-12 23:31:00,
2013-04-12 19:36:00,79.9,56.0,29.67,WSW,248,0.8,0.8,44,0.00,,,0.00,WUHU216HW,2013-04-12 23:36:00,
2013-04-12 19:59:00,77.4,53.7,29.68,WSW,248,2.2,2.2,44,0.00,,,0.00,WUHU216HW,2013-04-12 23:59:00,
2013-04-12 20:01:00,77.4,53.7,29.68,WSW,248,2.2,2.2,44,0.00,,,0.00,WUHU216HW,2013-04-13 00:01:00,
2013-04-12 20:05:00,77.4,53.7,29.68,WSW,248,2.2,2.2,44,0.00,,,0.00,WUHU216HW,2013-04-13 00:05:00,
2013-04-12 20:30:00,75.8,54.1,29.69,SSE,158,1.4,1.4,47,0.00,,,0.00,WUHU216HW,2013-04-13 00:30:00,
2013-04-12 20:31:00,75.8,54.1,29.69,SSE,158,1.4,1.4,47,0.00,,,0.00,WUHU216HW,2013-04-13 00:31:00,
2013-04-12 20:36:00,75.8,54.1,29.69,SSE,158,1.4,1.4,47,0.00,,,0.00,WUHU216HW,2013-04-13 00:36:00,
2013-04-12 20:59:00,76.5,52.3,29.71,WSW,248,1.4,1.4,43,0.00,,,0.00,WUHU216HW,2013-04-13 00:59:00,
2013-04-12 21:01:00,76.5,52.3,29.71,WSW,248,1.4,1.4,43,0.00,,,0.00,WUHU216HW,2013-04-13 01:01:00,
2013-04-12 21:05:00,76.5,52.3,29.71,WSW,248,1.4,1.4,43,0.00,,,0.00,WUHU216HW,2013-04-13 01:05:00,
2013-04-12 21:29:00,75.2,49.3,29.72,West,270,0.8,0.8,40,0.00,,,0.00,WUHU216HW,2013-04-13 01:29:00,
2013-04-12 21:31:00,75.2,49.3,29.72,West,270,0.8,0.8,40,0.00,,,0.00,WUHU216HW,2013-04-13 01:31:00,
2013-04-12 21:36:00,75.2,49.3,29.72,West,270,0.8,0.8,40,0.00,,,0.00,WUHU216HW,2013-04-13 01:36:00,
2013-04-12 21:59:00,72.9,47.8,29.73,West,270,5.4,5.4,41,0.00,,,0.00,WUHU216HW,2013-04-13 01:59:00,
2013-04-12 22:01:00,72.9,47.8,29.73,West,270,5.4,5.4,41,0.00,,,0.00,WUHU216HW,2013-04-13 02:01:00,
2013-04-12 22:05:00,72.9,47.8,29.73,West,270,5.4,5.4,41,0.00,,,0.00,WUHU216HW,2013-04-13 02:05:00,
2013-04-12 22:29:00,71.8,46.8,29.74,West,270,1.4,1.4,41,0.00,,,0.00,WUHU216HW,2013-04-13 02:29:00,
2013-04-12 22:31:00,71.8,46.8,29.74,West,270,1.4,1.4,41,0.00,,,0.00,WUHU216HW,2013-04-13 02:31:00,
2013-04-12 22:36:00,71.8,46.8,29.74,West,270,1.4,1.4,41,0.00,,,0.00,WUHU216HW,2013-04-13 02:36:00,
2013-04-12 22:59:00,70.0,50.0,29.76,WSW,248,7.2,7.2,49,0.00,,,0.00,WUHU216HW,2013-04-13 02:59:00,
2013-04-12 23:01:00,70.0,50.0,29.76,WSW,248,7.2,7.2,49,0.00,,,0.00,WUHU216HW,2013-04-13 03:01:00,
2013-04-12 23:06:00,70.0,50.0,29.76,WSW,248,7.2,7.2,49,0.00,,,0.00,WUHU216HW,2013-04-13 03:06:00,
2013-04-12 23:29:00,68.9,46.0,29.78,WNW,293,2.2,2.2,44,0.00,,,0.00,WUHU216HW,2013-04-13 03:29:00,
2013-04-12 23:31:00,68.9,46.0,29.78,WNW,293,2.2,2.2,44,0.00,,,0.00,WUHU216HW,2013-04-13 03:31:00,
2013-04-12 23:36:00,68.9,46.0,29.78,WNW,293,2.2,2.2,44,0.00,,,0.00,WUHU216HW,2013-04-13 03:36:00,
2013-04-12 23:59:00,67.0,43.7,29.79,West,270,3.2,3.2,43,0.00,,,0.00,WUHU216HW,2013-04-13 03:59:00,